Allen, Louisiana
Current Conditions -  °F | °C
As of 11:35 PM on Wednesday 17 Dec 2014 (Local Time) from KIER Reporting Station
Overcast Overcast  
Wind Chill: 49°   Ceiling: 4300
Heat Index: 49°   Visibility: 10mi
Dew Point: 43°   Wind: 0mph
Humidity: 80%   Direction: NA
Pressure: 30.19"   Gusts: NA
Location:  31.8112°N, 93.3051°W
Report Text: KIER 180535Z AUTO 00000KT 10SM BKN043 BKN070 OVC110 09/06 A3019 RMK AO2 T00930061
Loading
Personal Weather Stations






























Interactive Weather Map New forecast layout! Learn more

10-Day Weather Forecast

Advertisements
Track Severe Weather on mobile